sensor_id;sensor_type;location;lat;lon;timestamp;P1;durP1;ratioP1;P2;durP2;ratioP2
37647;SDS011;23490;53.656;10.076;2023-02-23T00:01:53;21.83;;;10.70;;
37647;SDS011;23490;53.656;10.076;2023-02-23T00:04:20;21.27;;;10.10;;
37647;SDS011;23490;53.656;10.076;2023-02-23T00:06:47;23.08;;;10.55;;
37647;SDS011;23490;53.656;10.076;2023-02-23T00:09:13;23.63;;;10.55;;
37647;SDS011;23490;53.656;10.076;2023-02-23T00:11:59;24.05;;;10.60;;
37647;SDS011;23490;53.656;10.076;2023-02-23T00:14:32;20.83;;;10.23;;
37647;SDS011;23490;53.656;10.076;2023-02-23T00:16:58;23.80;;;10.98;;
37647;SDS011;23490;53.656;10.076;2023-02-23T00:19:24;25.65;;;10.68;;
37647;SDS011;23490;53.656;10.076;2023-02-23T00:21:50;22.48;;;11.13;;
37647;SDS011;23490;53.656;10.076;2023-02-23T00:24:16;27.52;;;11.98;;
37647;SDS011;23490;53.656;10.076;2023-02-23T00:26:45;23.65;;;11.23;;
37647;SDS011;23490;53.656;10.076;2023-02-23T00:29:13;24.35;;;11.15;;
37647;SDS011;23490;53.656;10.076;2023-02-23T00:31:41;27.50;;;10.97;;
37647;SDS011;23490;53.656;10.076;2023-02-23T00:34:08;28.27;;;11.98;;
37647;SDS011;23490;53.656;10.076;2023-02-23T00:36:35;26.55;;;10.80;;
37647;SDS011;23490;53.656;10.076;2023-02-23T00:39:03;22.50;;;10.35;;
37647;SDS011;23490;53.656;10.076;2023-02-23T00:41:41;23.58;;;10.95;;
37647;SDS011;23490;53.656;10.076;2023-02-23T00:44:07;27.17;;;10.77;;
37647;SDS011;23490;53.656;10.076;2023-02-23T00:46:32;24.02;;;11.23;;
37647;SDS011;23490;53.656;10.076;2023-02-23T00:48:57;27.10;;;11.35;;
37647;SDS011;23490;53.656;10.076;2023-02-23T00:51:24;25.98;;;11.07;;
37647;SDS011;23490;53.656;10.076;2023-02-23T00:53:57;26.60;;;11.45;;
37647;SDS011;23490;53.656;10.076;2023-02-23T00:56:23;23.02;;;10.20;;
37647;SDS011;23490;53.656;10.076;2023-02-23T00:58:50;27.50;;;11.45;;
37647;SDS011;23490;53.656;10.076;2023-02-23T01:01:15;25.55;;;11.48;;
37647;SDS011;23490;53.656;10.076;2023-02-23T01:03:41;23.42;;;11.27;;
37647;SDS011;23490;53.656;10.076;2023-02-23T01:06:08;26.13;;;11.02;;
37647;SDS011;23490;53.656;10.076;2023-02-23T01:08:38;23.65;;;10.60;;
37647;SDS011;23490;53.656;10.076;2023-02-23T01:11:06;25.73;;;11.75;;
37647;SDS011;23490;53.656;10.076;2023-02-23T01:13:36;29.13;;;11.90;;
37647;SDS011;23490;53.656;10.076;2023-02-23T01:16:03;25.83;;;12.40;;
37647;SDS011;23490;53.656;10.076;2023-02-23T01:18:33;26.35;;;11.23;;
37647;SDS011;23490;53.656;10.076;2023-02-23T01:20:59;21.02;;;10.82;;
37647;SDS011;23490;53.656;10.076;2023-02-23T01:23:25;21.75;;;11.23;;
37647;SDS011;23490;53.656;10.076;2023-02-23T01:25:50;29.02;;;11.40;;
37647;SDS011;23490;53.656;10.076;2023-02-23T01:28:16;23.88;;;11.27;;
37647;SDS011;23490;53.656;10.076;2023-02-23T01:30:41;25.52;;;11.70;;
37647;SDS011;23490;53.656;10.076;2023-02-23T01:33:07;27.70;;;11.60;;
37647;SDS011;23490;53.656;10.076;2023-02-23T01:35:32;25.38;;;11.35;;
37647;SDS011;23490;53.656;10.076;2023-02-23T01:37:58;22.33;;;10.25;;
37647;SDS011;23490;53.656;10.076;2023-02-23T01:40:24;27.90;;;12.15;;
37647;SDS011;23490;53.656;10.076;2023-02-23T01:42:58;24.92;;;11.90;;
37647;SDS011;23490;53.656;10.076;2023-02-23T01:45:36;23.20;;;10.75;;
37647;SDS011;23490;53.656;10.076;2023-02-23T01:50:52;29.27;;;12.05;;
37647;SDS011;23490;53.656;10.076;2023-02-23T01:53:21;26.92;;;11.57;;
37647;SDS011;23490;53.656;10.076;2023-02-23T01:55:53;27.65;;;12.85;;
37647;SDS011;23490;53.656;10.076;2023-02-23T01:58:22;28.88;;;12.50;;
37647;SDS011;23490;53.656;10.076;2023-02-23T02:00:51;25.98;;;12.10;;
37647;SDS011;23490;53.656;10.076;2023-02-23T02:03:34;25.15;;;11.15;;
37647;SDS011;23490;53.656;10.076;2023-02-23T02:06:02;28.15;;;12.35;;
37647;SDS011;23490;53.656;10.076;2023-02-23T02:08:34;26.98;;;12.60;;
37647;SDS011;23490;53.656;10.076;2023-02-23T02:11:09;23.85;;;12.02;;
37647;SDS011;23490;53.656;10.076;2023-02-23T02:14:11;27.48;;;11.68;;
37647;SDS011;23490;53.656;10.076;2023-02-23T02:16:46;26.02;;;12.63;;
37647;SDS011;23490;53.656;10.076;2023-02-23T02:25:17;23.48;;;11.48;;
37647;SDS011;23490;53.656;10.076;2023-02-23T02:33:37;28.98;;;13.73;;
37647;SDS011;23490;53.656;10.076;2023-02-23T02:39:37;34.97;;;13.57;;
37647;SDS011;23490;53.656;10.076;2023-02-23T02:42:16;29.35;;;13.13;;
37647;SDS011;23490;53.656;10.076;2023-02-23T02:47:27;30.58;;;12.25;;
37647;SDS011;23490;53.656;10.076;2023-02-23T02:52:43;32.95;;;13.40;;
37647;SDS011;23490;53.656;10.076;2023-02-23T02:55:16;33.33;;;13.85;;
37647;SDS011;23490;53.656;10.076;2023-02-23T02:57:48;30.60;;;13.90;;
37647;SDS011;23490;53.656;10.076;2023-02-23T03:00:19;27.65;;;12.07;;
37647;SDS011;23490;53.656;10.076;2023-02-23T03:03:09;28.75;;;13.35;;
37647;SDS011;23490;53.656;10.076;2023-02-23T03:06:43;30.17;;;12.13;;
37647;SDS011;23490;53.656;10.076;2023-02-23T03:09:35;30.92;;;12.95;;
37647;SDS011;23490;53.656;10.076;2023-02-23T03:12:36;28.38;;;13.18;;
37647;SDS011;23490;53.656;10.076;2023-02-23T03:15:29;29.38;;;13.25;;
37647;SDS011;23490;53.656;10.076;2023-02-23T03:21:49;36.30;;;13.55;;
37647;SDS011;23490;53.656;10.076;2023-02-23T03:24:41;36.10;;;13.70;;
37647;SDS011;23490;53.656;10.076;2023-02-23T03:27:41;31.15;;;13.25;;
37647;SDS011;23490;53.656;10.076;2023-02-23T03:30:38;31.10;;;13.48;;
37647;SDS011;23490;53.656;10.076;2023-02-23T03:33:34;34.75;;;14.23;;
37647;SDS011;23490;53.656;10.076;2023-02-23T03:36:27;31.65;;;13.63;;
37647;SDS011;23490;53.656;10.076;2023-02-23T03:39:21;35.72;;;13.40;;
37647;SDS011;23490;53.656;10.076;2023-02-23T03:42:16;33.58;;;13.30;;
37647;SDS011;23490;53.656;10.076;2023-02-23T03:45:05;25.83;;;12.63;;
37647;SDS011;23490;53.656;10.076;2023-02-23T03:47:52;35.00;;;13.43;;
37647;SDS011;23490;53.656;10.076;2023-02-23T03:50:42;36.90;;;14.27;;
37647;SDS011;23490;53.656;10.076;2023-02-23T03:53:35;32.78;;;14.65;;
37647;SDS011;23490;53.656;10.076;2023-02-23T03:56:26;29.08;;;13.68;;
37647;SDS011;23490;53.656;10.076;2023-02-23T03:59:13;34.40;;;14.07;;
37647;SDS011;23490;53.656;10.076;2023-02-23T04:02:00;32.75;;;14.10;;
37647;SDS011;23490;53.656;10.076;2023-02-23T04:04:46;29.02;;;13.45;;
37647;SDS011;23490;53.656;10.076;2023-02-23T04:07:31;33.53;;;14.73;;
37647;SDS011;23490;53.656;10.076;2023-02-23T04:10:17;33.65;;;15.18;;
37647;SDS011;23490;53.656;10.076;2023-02-23T04:13:03;35.45;;;15.18;;
37647;SDS011;23490;53.656;10.076;2023-02-23T04:15:43;33.65;;;16.05;;
37647;SDS011;23490;53.656;10.076;2023-02-23T04:18:21;30.13;;;14.05;;
37647;SDS011;23490;53.656;10.076;2023-02-23T04:20:48;38.47;;;14.88;;
37647;SDS011;23490;53.656;10.076;2023-02-23T04:23:14;32.58;;;13.90;;
37647;SDS011;23490;53.656;10.076;2023-02-23T04:25:39;30.50;;;14.90;;
37647;SDS011;23490;53.656;10.076;2023-02-23T04:28:04;33.58;;;14.38;;
37647;SDS011;23490;53.656;10.076;2023-02-23T04:30:30;28.55;;;14.15;;
37647;SDS011;23490;53.656;10.076;2023-02-23T04:32:55;31.45;;;14.30;;
37647;SDS011;23490;53.656;10.076;2023-02-23T04:35:21;32.33;;;14.80;;
37647;SDS011;23490;53.656;10.076;2023-02-23T04:37:46;35.45;;;15.05;;
37647;SDS011;23490;53.656;10.076;2023-02-23T04:40:12;31.10;;;13.98;;
37647;SDS011;23490;53.656;10.076;2023-02-23T04:42:38;36.83;;;14.68;;
37647;SDS011;23490;53.656;10.076;2023-02-23T04:45:04;31.00;;;14.15;;
37647;SDS011;23490;53.656;10.076;2023-02-23T04:47:30;33.40;;;14.98;;
37647;SDS011;23490;53.656;10.076;2023-02-23T04:49:55;35.50;;;15.25;;
37647;SDS011;23490;53.656;10.076;2023-02-23T04:52:20;33.75;;;14.68;;
37647;SDS011;23490;53.656;10.076;2023-02-23T04:54:46;32.65;;;14.52;;
37647;SDS011;23490;53.656;10.076;2023-02-23T04:57:11;33.92;;;14.35;;
37647;SDS011;23490;53.656;10.076;2023-02-23T04:59:37;40.60;;;15.68;;
37647;SDS011;23490;53.656;10.076;2023-02-23T05:02:02;42.20;;;17.05;;
37647;SDS011;23490;53.656;10.076;2023-02-23T05:04:28;34.17;;;14.80;;
37647;SDS011;23490;53.656;10.076;2023-02-23T05:06:53;36.40;;;15.02;;
37647;SDS011;23490;53.656;10.076;2023-02-23T05:09:19;36.50;;;14.75;;
37647;SDS011;23490;53.656;10.076;2023-02-23T05:11:44;33.28;;;14.55;;
37647;SDS011;23490;53.656;10.076;2023-02-23T05:14:10;33.60;;;13.98;;
37647;SDS011;23490;53.656;10.076;2023-02-23T05:16:36;39.70;;;15.13;;
37647;SDS011;23490;53.656;10.076;2023-02-23T05:19:01;35.85;;;15.63;;
37647;SDS011;23490;53.656;10.076;2023-02-23T05:21:27;36.15;;;15.48;;
37647;SDS011;23490;53.656;10.076;2023-02-23T05:23:52;39.33;;;16.67;;
37647;SDS011;23490;53.656;10.076;2023-02-23T05:26:17;31.95;;;13.93;;
37647;SDS011;23490;53.656;10.076;2023-02-23T05:28:43;40.45;;;15.48;;
37647;SDS011;23490;53.656;10.076;2023-02-23T05:31:09;33.88;;;16.42;;
37647;SDS011;23490;53.656;10.076;2023-02-23T05:33:35;37.75;;;15.95;;
37647;SDS011;23490;53.656;10.076;2023-02-23T05:36:10;36.63;;;16.20;;
37647;SDS011;23490;53.656;10.076;2023-02-23T05:38:37;37.85;;;17.30;;
37647;SDS011;23490;53.656;10.076;2023-02-23T05:41:07;35.05;;;16.52;;
37647;SDS011;23490;53.656;10.076;2023-02-23T05:43:34;36.75;;;16.70;;
37647;SDS011;23490;53.656;10.076;2023-02-23T05:45:59;39.63;;;17.58;;
37647;SDS011;23490;53.656;10.076;2023-02-23T05:48:25;40.00;;;16.08;;
37647;SDS011;23490;53.656;10.076;2023-02-23T05:50:51;43.28;;;16.55;;
37647;SDS011;23490;53.656;10.076;2023-02-23T05:53:17;41.65;;;16.50;;
37647;SDS011;23490;53.656;10.076;2023-02-23T05:55:42;33.28;;;15.60;;
37647;SDS011;23490;53.656;10.076;2023-02-23T05:58:07;37.40;;;16.42;;
37647;SDS011;23490;53.656;10.076;2023-02-23T06:00:33;35.92;;;16.48;;
37647;SDS011;23490;53.656;10.076;2023-02-23T06:02:58;41.05;;;17.30;;
37647;SDS011;23490;53.656;10.076;2023-02-23T06:05:23;34.58;;;16.08;;
37647;SDS011;23490;53.656;10.076;2023-02-23T06:07:49;37.40;;;16.70;;
37647;SDS011;23490;53.656;10.076;2023-02-23T06:10:14;38.55;;;16.13;;
37647;SDS011;23490;53.656;10.076;2023-02-23T06:12:39;51.13;;;16.88;;
37647;SDS011;23490;53.656;10.076;2023-02-23T06:15:05;41.00;;;17.45;;
37647;SDS011;23490;53.656;10.076;2023-02-23T06:17:30;43.33;;;18.20;;
37647;SDS011;23490;53.656;10.076;2023-02-23T06:19:56;42.10;;;18.13;;
37647;SDS011;23490;53.656;10.076;2023-02-23T06:22:22;42.45;;;19.15;;
37647;SDS011;23490;53.656;10.076;2023-02-23T06:24:48;47.22;;;20.20;;
37647;SDS011;23490;53.656;10.076;2023-02-23T06:27:13;48.92;;;18.55;;
37647;SDS011;23490;53.656;10.076;2023-02-23T06:29:39;47.22;;;18.80;;
37647;SDS011;23490;53.656;10.076;2023-02-23T06:32:04;49.20;;;21.45;;
37647;SDS011;23490;53.656;10.076;2023-02-23T06:34:29;52.80;;;22.13;;
37647;SDS011;23490;53.656;10.076;2023-02-23T06:36:55;54.38;;;22.25;;
37647;SDS011;23490;53.656;10.076;2023-02-23T06:39:20;61.30;;;22.63;;
37647;SDS011;23490;53.656;10.076;2023-02-23T06:41:46;60.95;;;22.15;;
37647;SDS011;23490;53.656;10.076;2023-02-23T06:44:11;61.45;;;22.48;;
37647;SDS011;23490;53.656;10.076;2023-02-23T06:46:37;54.92;;;22.05;;
37647;SDS011;23490;53.656;10.076;2023-02-23T06:49:02;63.13;;;22.50;;
37647;SDS011;23490;53.656;10.076;2023-02-23T06:51:28;63.08;;;23.20;;
37647;SDS011;23490;53.656;10.076;2023-02-23T06:53:53;62.03;;;23.63;;
37647;SDS011;23490;53.656;10.076;2023-02-23T06:56:18;64.53;;;24.05;;
37647;SDS011;23490;53.656;10.076;2023-02-23T06:58:44;58.42;;;22.45;;
37647;SDS011;23490;53.656;10.076;2023-02-23T07:01:10;61.17;;;23.02;;
37647;SDS011;23490;53.656;10.076;2023-02-23T07:03:36;60.22;;;24.70;;
37647;SDS011;23490;53.656;10.076;2023-02-23T07:06:02;56.55;;;22.98;;
37647;SDS011;23490;53.656;10.076;2023-02-23T07:08:30;62.53;;;23.10;;
37647;SDS011;23490;53.656;10.076;2023-02-23T07:10:56;73.25;;;24.08;;
37647;SDS011;23490;53.656;10.076;2023-02-23T07:13:22;64.10;;;23.52;;
37647;SDS011;23490;53.656;10.076;2023-02-23T07:15:48;68.35;;;24.02;;
37647;SDS011;23490;53.656;10.076;2023-02-23T07:18:13;66.38;;;24.67;;
37647;SDS011;23490;53.656;10.076;2023-02-23T07:20:38;70.90;;;25.23;;
37647;SDS011;23490;53.656;10.076;2023-02-23T07:23:04;76.85;;;28.23;;
37647;SDS011;23490;53.656;10.076;2023-02-23T07:25:29;70.00;;;24.33;;
37647;SDS011;23490;53.656;10.076;2023-02-23T07:27:55;65.78;;;24.05;;
37647;SDS011;23490;53.656;10.076;2023-02-23T07:30:21;73.43;;;25.35;;
37647;SDS011;23490;53.656;10.076;2023-02-23T07:32:48;80.40;;;25.40;;
37647;SDS011;23490;53.656;10.076;2023-02-23T07:35:17;82.67;;;27.47;;
37647;SDS011;23490;53.656;10.076;2023-02-23T07:37:44;78.18;;;25.80;;
37647;SDS011;23490;53.656;10.076;2023-02-23T07:40:09;80.13;;;27.90;;
37647;SDS011;23490;53.656;10.076;2023-02-23T07:42:35;82.75;;;27.55;;
37647;SDS011;23490;53.656;10.076;2023-02-23T07:45:01;76.53;;;25.83;;
37647;SDS011;23490;53.656;10.076;2023-02-23T07:47:26;81.07;;;27.42;;
37647;SDS011;23490;53.656;10.076;2023-02-23T07:49:56;87.88;;;28.38;;
37647;SDS011;23490;53.656;10.076;2023-02-23T07:52:26;91.28;;;28.45;;
37647;SDS011;23490;53.656;10.076;2023-02-23T07:54:52;84.70;;;25.08;;
37647;SDS011;23490;53.656;10.076;2023-02-23T07:57:18;77.13;;;25.88;;
37647;SDS011;23490;53.656;10.076;2023-02-23T07:59:44;75.10;;;28.52;;
37647;SDS011;23490;53.656;10.076;2023-02-23T08:02:11;84.10;;;27.00;;
37647;SDS011;23490;53.656;10.076;2023-02-23T08:04:37;73.68;;;26.33;;
37647;SDS011;23490;53.656;10.076;2023-02-23T08:07:04;65.95;;;24.73;;
37647;SDS011;23490;53.656;10.076;2023-02-23T08:09:30;68.70;;;23.70;;
37647;SDS011;23490;53.656;10.076;2023-02-23T08:11:56;79.05;;;26.40;;
37647;SDS011;23490;53.656;10.076;2023-02-23T08:14:22;76.35;;;24.55;;
37647;SDS011;23490;53.656;10.076;2023-02-23T08:16:47;72.50;;;25.77;;
37647;SDS011;23490;53.656;10.076;2023-02-23T08:19:13;64.32;;;23.73;;
37647;SDS011;23490;53.656;10.076;2023-02-23T08:21:38;71.63;;;25.35;;
37647;SDS011;23490;53.656;10.076;2023-02-23T08:24:03;69.72;;;23.83;;
37647;SDS011;23490;53.656;10.076;2023-02-23T08:26:30;62.90;;;23.27;;
37647;SDS011;23490;53.656;10.076;2023-02-23T08:28:55;61.10;;;21.10;;
37647;SDS011;23490;53.656;10.076;2023-02-23T08:31:20;66.95;;;23.42;;
37647;SDS011;23490;53.656;10.076;2023-02-23T08:33:47;64.32;;;24.15;;
37647;SDS011;23490;53.656;10.076;2023-02-23T08:36:13;69.82;;;24.15;;
37647;SDS011;23490;53.656;10.076;2023-02-23T08:38:38;64.22;;;23.20;;
37647;SDS011;23490;53.656;10.076;2023-02-23T08:41:04;65.95;;;22.90;;
37647;SDS011;23490;53.656;10.076;2023-02-23T08:43:30;63.65;;;22.52;;
37647;SDS011;23490;53.656;10.076;2023-02-23T08:45:56;63.75;;;22.05;;
37647;SDS011;23490;53.656;10.076;2023-02-23T08:48:21;60.58;;;21.48;;
37647;SDS011;23490;53.656;10.076;2023-02-23T08:50:48;60.58;;;22.02;;
37647;SDS011;23490;53.656;10.076;2023-02-23T08:53:17;56.42;;;22.98;;
37647;SDS011;23490;53.656;10.076;2023-02-23T08:55:43;50.80;;;21.42;;
37647;SDS011;23490;53.656;10.076;2023-02-23T08:58:09;59.17;;;20.73;;
37647;SDS011;23490;53.656;10.076;2023-02-23T09:00:35;48.10;;;19.70;;
37647;SDS011;23490;53.656;10.076;2023-02-23T09:03:01;50.20;;;19.95;;
37647;SDS011;23490;53.656;10.076;2023-02-23T09:05:31;50.75;;;20.02;;
37647;SDS011;23490;53.656;10.076;2023-02-23T09:08:00;47.20;;;19.10;;
37647;SDS011;23490;53.656;10.076;2023-02-23T09:10:25;49.22;;;18.90;;
37647;SDS011;23490;53.656;10.076;2023-02-23T09:12:53;53.22;;;20.27;;
37647;SDS011;23490;53.656;10.076;2023-02-23T09:15:19;53.90;;;20.02;;
37647;SDS011;23490;53.656;10.076;2023-02-23T09:17:45;52.88;;;20.25;;
37647;SDS011;23490;53.656;10.076;2023-02-23T09:20:11;47.42;;;19.15;;
37647;SDS011;23490;53.656;10.076;2023-02-23T09:22:39;53.58;;;21.27;;
37647;SDS011;23490;53.656;10.076;2023-02-23T09:25:09;52.70;;;20.55;;
37647;SDS011;23490;53.656;10.076;2023-02-23T09:27:36;48.58;;;20.13;;
37647;SDS011;23490;53.656;10.076;2023-02-23T09:30:02;49.40;;;20.63;;
37647;SDS011;23490;53.656;10.076;2023-02-23T09:32:28;54.47;;;21.17;;
37647;SDS011;23490;53.656;10.076;2023-02-23T09:34:54;70.55;;;25.55;;
37647;SDS011;23490;53.656;10.076;2023-02-23T09:37:19;60.20;;;23.08;;
37647;SDS011;23490;53.656;10.076;2023-02-23T09:39:44;69.88;;;26.50;;
37647;SDS011;23490;53.656;10.076;2023-02-23T09:47:50;69.95;;;25.90;;
37647;SDS011;23490;53.656;10.076;2023-02-23T09:50:21;76.53;;;27.95;;
37647;SDS011;23490;53.656;10.076;2023-02-23T09:52:51;89.38;;;28.00;;
37647;SDS011;23490;53.656;10.076;2023-02-23T09:55:23;89.05;;;29.23;;
37647;SDS011;23490;53.656;10.076;2023-02-23T09:57:50;117.25;;;31.70;;
37647;SDS011;23490;53.656;10.076;2023-02-23T10:00:18;116.20;;;32.28;;
37647;SDS011;23490;53.656;10.076;2023-02-23T10:02:58;107.60;;;32.95;;
37647;SDS011;23490;53.656;10.076;2023-02-23T10:05:26;103.90;;;31.30;;
37647;SDS011;23490;53.656;10.076;2023-02-23T10:07:58;105.15;;;33.28;;
37647;SDS011;23490;53.656;10.076;2023-02-23T10:18:53;102.72;;;30.77;;
37647;SDS011;23490;53.656;10.076;2023-02-23T10:26:55;101.30;;;29.50;;
37647;SDS011;23490;53.656;10.076;2023-02-23T10:29:29;93.63;;;29.75;;
37647;SDS011;23490;53.656;10.076;2023-02-23T10:31:59;105.50;;;31.88;;
37647;SDS011;23490;53.656;10.076;2023-02-23T10:36:59;95.22;;;30.17;;
37647;SDS011;23490;53.656;10.076;2023-02-23T10:39:26;96.70;;;29.60;;
37647;SDS011;23490;53.656;10.076;2023-02-23T10:41:53;83.40;;;28.38;;
37647;SDS011;23490;53.656;10.076;2023-02-23T10:44:22;89.88;;;27.50;;
37647;SDS011;23490;53.656;10.076;2023-02-23T10:47:05;87.15;;;29.15;;
37647;SDS011;23490;53.656;10.076;2023-02-23T10:49:54;106.55;;;31.60;;
37647;SDS011;23490;53.656;10.076;2023-02-23T10:52:22;87.63;;;29.02;;
37647;SDS011;23490;53.656;10.076;2023-02-23T10:54:53;95.85;;;29.02;;
37647;SDS011;23490;53.656;10.076;2023-02-23T10:57:26;96.97;;;30.35;;
37647;SDS011;23490;53.656;10.076;2023-02-23T11:00:21;89.55;;;29.17;;
37647;SDS011;23490;53.656;10.076;2023-02-23T11:02:51;84.80;;;26.90;;
37647;SDS011;23490;53.656;10.076;2023-02-23T11:08:10;73.63;;;26.88;;
37647;SDS011;23490;53.656;10.076;2023-02-23T11:10:55;79.13;;;26.00;;
37647;SDS011;23490;53.656;10.076;2023-02-23T11:13:35;70.82;;;24.27;;
37647;SDS011;23490;53.656;10.076;2023-02-23T11:18:34;68.32;;;23.23;;
37647;SDS011;23490;53.656;10.076;2023-02-23T11:21:00;70.88;;;23.88;;
37647;SDS011;23490;53.656;10.076;2023-02-23T11:23:28;82.10;;;25.83;;
37647;SDS011;23490;53.656;10.076;2023-02-23T11:25:56;67.40;;;24.00;;
37647;SDS011;23490;53.656;10.076;2023-02-23T11:28:25;71.68;;;24.98;;
37647;SDS011;23490;53.656;10.076;2023-02-23T11:31:08;68.63;;;25.05;;
37647;SDS011;23490;53.656;10.076;2023-02-23T11:33:42;64.25;;;24.08;;
37647;SDS011;23490;53.656;10.076;2023-02-23T11:36:13;68.55;;;22.95;;
37647;SDS011;23490;53.656;10.076;2023-02-23T11:38:45;65.25;;;23.77;;
37647;SDS011;23490;53.656;10.076;2023-02-23T11:41:18;67.70;;;24.55;;
37647;SDS011;23490;53.656;10.076;2023-02-23T11:43:47;72.18;;;24.95;;
37647;SDS011;23490;53.656;10.076;2023-02-23T11:46:14;63.05;;;24.10;;
37647;SDS011;23490;53.656;10.076;2023-02-23T11:48:49;66.65;;;24.83;;
37647;SDS011;23490;53.656;10.076;2023-02-23T11:51:25;58.70;;;22.08;;
37647;SDS011;23490;53.656;10.076;2023-02-23T11:53:54;65.30;;;23.73;;
37647;SDS011;23490;53.656;10.076;2023-02-23T11:56:20;73.40;;;25.63;;
37647;SDS011;23490;53.656;10.076;2023-02-23T11:58:48;60.17;;;22.92;;
37647;SDS011;23490;53.656;10.076;2023-02-23T12:01:40;67.95;;;23.48;;
37647;SDS011;23490;53.656;10.076;2023-02-23T12:04:24;69.22;;;24.73;;
37647;SDS011;23490;53.656;10.076;2023-02-23T12:06:55;69.20;;;24.75;;
37647;SDS011;23490;53.656;10.076;2023-02-23T12:10:23;64.53;;;23.50;;
37647;SDS011;23490;53.656;10.076;2023-02-23T12:15:57;70.20;;;22.52;;
37647;SDS011;23490;53.656;10.076;2023-02-23T12:23:41;63.85;;;22.75;;
37647;SDS011;23490;53.656;10.076;2023-02-23T12:26:11;64.85;;;23.58;;
37647;SDS011;23490;53.656;10.076;2023-02-23T12:29:05;63.22;;;20.90;;
37647;SDS011;23490;53.656;10.076;2023-02-23T12:31:57;64.00;;;22.33;;
37647;SDS011;23490;53.656;10.076;2023-02-23T12:34:41;59.05;;;20.80;;
37647;SDS011;23490;53.656;10.076;2023-02-23T12:39:57;64.60;;;21.77;;
37647;SDS011;23490;53.656;10.076;2023-02-23T12:42:37;60.85;;;21.63;;
37647;SDS011;23490;53.656;10.076;2023-02-23T12:45:12;58.25;;;20.92;;
37647;SDS011;23490;53.656;10.076;2023-02-23T12:50:53;60.22;;;21.90;;
37647;SDS011;23490;53.656;10.076;2023-02-23T12:53:25;63.75;;;21.55;;
37647;SDS011;23490;53.656;10.076;2023-02-23T12:59:13;57.38;;;19.95;;
37647;SDS011;23490;53.656;10.076;2023-02-23T13:01:57;63.83;;;21.05;;
37647;SDS011;23490;53.656;10.076;2023-02-23T13:04:31;57.95;;;20.23;;
37647;SDS011;23490;53.656;10.076;2023-02-23T13:12:43;57.13;;;20.17;;
37647;SDS011;23490;53.656;10.076;2023-02-23T13:21:13;55.20;;;20.73;;
37647;SDS011;23490;53.656;10.076;2023-02-23T13:32:01;45.75;;;18.40;;
37647;SDS011;23490;53.656;10.076;2023-02-23T13:34:30;49.63;;;18.70;;
37647;SDS011;23490;53.656;10.076;2023-02-23T13:37:00;43.13;;;17.65;;
37647;SDS011;23490;53.656;10.076;2023-02-23T13:39:47;49.17;;;18.25;;
37647;SDS011;23490;53.656;10.076;2023-02-23T13:42:35;50.58;;;17.33;;
37647;SDS011;23490;53.656;10.076;2023-02-23T13:45:06;45.63;;;17.25;;
37647;SDS011;23490;53.656;10.076;2023-02-23T13:48:01;51.20;;;17.33;;
37647;SDS011;23490;53.656;10.076;2023-02-23T13:50:53;44.97;;;17.17;;
37647;SDS011;23490;53.656;10.076;2023-02-23T13:53:35;47.83;;;17.95;;
37647;SDS011;23490;53.656;10.076;2023-02-23T13:56:05;45.67;;;17.58;;
37647;SDS011;23490;53.656;10.076;2023-02-23T13:58:33;48.43;;;16.93;;
37647;SDS011;23490;53.656;10.076;2023-02-23T14:01:03;45.67;;;17.13;;
37647;SDS011;23490;53.656;10.076;2023-02-23T14:03:34;40.88;;;17.05;;
37647;SDS011;23490;53.656;10.076;2023-02-23T14:06:05;41.60;;;16.33;;
37647;SDS011;23490;53.656;10.076;2023-02-23T14:08:36;45.53;;;15.35;;
37647;SDS011;23490;53.656;10.076;2023-02-23T14:11:03;42.03;;;15.32;;
37647;SDS011;23490;53.656;10.076;2023-02-23T14:13:40;43.00;;;15.93;;
37647;SDS011;23490;53.656;10.076;2023-02-23T14:16:21;45.78;;;15.80;;
37647;SDS011;23490;53.656;10.076;2023-02-23T14:21:44;49.40;;;15.50;;
37647;SDS011;23490;53.656;10.076;2023-02-23T14:24:16;42.60;;;15.45;;
37647;SDS011;23490;53.656;10.076;2023-02-23T14:27:10;39.88;;;14.50;;
37647;SDS011;23490;53.656;10.076;2023-02-23T14:29:41;40.92;;;12.77;;
37647;SDS011;23490;53.656;10.076;2023-02-23T14:37:28;44.95;;;14.95;;
37647;SDS011;23490;53.656;10.076;2023-02-23T14:42:29;33.90;;;12.77;;
37647;SDS011;23490;53.656;10.076;2023-02-23T14:44:57;39.15;;;14.00;;
37647;SDS011;23490;53.656;10.076;2023-02-23T14:47:28;40.10;;;13.90;;
37647;SDS011;23490;53.656;10.076;2023-02-23T14:50:05;32.42;;;12.32;;
37647;SDS011;23490;53.656;10.076;2023-02-23T14:52:40;34.30;;;11.57;;
37647;SDS011;23490;53.656;10.076;2023-02-23T14:57:48;30.58;;;11.50;;
37647;SDS011;23490;53.656;10.076;2023-02-23T15:00:19;32.38;;;10.98;;
37647;SDS011;23490;53.656;10.076;2023-02-23T15:05:41;28.73;;;11.60;;
37647;SDS011;23490;53.656;10.076;2023-02-23T15:08:11;25.63;;;9.45;;
37647;SDS011;23490;53.656;10.076;2023-02-23T15:10:40;31.20;;;11.70;;
37647;SDS011;23490;53.656;10.076;2023-02-23T15:13:09;32.05;;;11.13;;
37647;SDS011;23490;53.656;10.076;2023-02-23T15:15:40;31.23;;;11.63;;
37647;SDS011;23490;53.656;10.076;2023-02-23T15:21:30;26.75;;;10.43;;
37647;SDS011;23490;53.656;10.076;2023-02-23T15:24:10;24.85;;;9.65;;
37647;SDS011;23490;53.656;10.076;2023-02-23T15:26:38;24.73;;;9.88;;
37647;SDS011;23490;53.656;10.076;2023-02-23T15:29:18;25.58;;;10.27;;
37647;SDS011;23490;53.656;10.076;2023-02-23T15:31:47;28.80;;;10.20;;
37647;SDS011;23490;53.656;10.076;2023-02-23T15:34:23;29.42;;;10.90;;
37647;SDS011;23490;53.656;10.076;2023-02-23T15:36:57;34.20;;;10.38;;
37647;SDS011;23490;53.656;10.076;2023-02-23T15:39:34;32.40;;;11.13;;
37647;SDS011;23490;53.656;10.076;2023-02-23T15:42:01;34.72;;;9.93;;
37647;SDS011;23490;53.656;10.076;2023-02-23T15:44:29;34.42;;;12.15;;
37647;SDS011;23490;53.656;10.076;2023-02-23T15:47:00;30.15;;;10.98;;
37647;SDS011;23490;53.656;10.076;2023-02-23T15:49:32;35.00;;;11.82;;
37647;SDS011;23490;53.656;10.076;2023-02-23T15:52:02;30.90;;;11.95;;
37647;SDS011;23490;53.656;10.076;2023-02-23T15:57:27;34.05;;;11.35;;
37647;SDS011;23490;53.656;10.076;2023-02-23T15:59:59;30.60;;;10.93;;
37647;SDS011;23490;53.656;10.076;2023-02-23T16:02:31;34.15;;;10.10;;
37647;SDS011;23490;53.656;10.076;2023-02-23T16:05:12;27.98;;;10.32;;
37647;SDS011;23490;53.656;10.076;2023-02-23T16:07:44;30.65;;;11.18;;
37647;SDS011;23490;53.656;10.076;2023-02-23T16:10:22;29.23;;;10.88;;
37647;SDS011;23490;53.656;10.076;2023-02-23T16:12:53;30.73;;;10.55;;
37647;SDS011;23490;53.656;10.076;2023-02-23T16:17:52;28.48;;;10.35;;
37647;SDS011;23490;53.656;10.076;2023-02-23T16:20:28;30.80;;;10.23;;
37647;SDS011;23490;53.656;10.076;2023-02-23T16:22:58;29.23;;;9.95;;
37647;SDS011;23490;53.656;10.076;2023-02-23T16:25:27;27.80;;;9.88;;
37647;SDS011;23490;53.656;10.076;2023-02-23T16:27:55;25.35;;;9.18;;
37647;SDS011;23490;53.656;10.076;2023-02-23T16:35:45;29.58;;;8.45;;